This is the latest recevied weather packets stored in our database for station/object OE6ATD-13. If no packets are shown the sender has not sent any weather packets the latest 10 day(s).
| Time | Temp. | Humidity | Pressure | Rain* | Wind** | Luminosity | Snow |
|---|---|---|---|---|---|---|---|
| 1778249724 | 25° C | 31% | 1014.5 hPa | 0 mm | - | 488 W/m² | - |
| 1778249119 | 24.44° C | 32% | 1014.5 hPa | 0 mm | - | 497 W/m² | - |
| 1778248515 | 23.89° C | 32% | 1014.6 hPa | 0 mm | - | 490 W/m² | - |
| 1778247926 | 23.33° C | 32% | 1014.8 hPa | 0 mm | - | 426 W/m² | - |
| 1778247322 | 23.33° C | 32% | 1014.9 hPa | 0 mm | - | 485 W/m² | - |
| 1778246718 | 22.78° C | 33% | 1015.1 hPa | 0 mm | - | 444 W/m² | - |
| 1778246129 | 21.67° C | 39% | 1015.3 hPa | 0 mm | - | 395 W/m² | - |
| 1778245525 | 21.67° C | 40% | 1015.4 hPa | 0 mm | - | 315 W/m² | - |
| 1778244920 | 22.22° C | 35% | 1015.4 hPa | 0 mm | - | 346 W/m² | - |
| 1778244316 | 23.33° C | 32% | 1015.5 hPa | 0 mm | - | 486 W/m² | - |
| 1778243727 | 23.33° C | 32% | 1015.5 hPa | 0 mm | - | 647 W/m² | - |
| 1778243123 | 23.33° C | 32% | 1015.5 hPa | 0 mm | - | 809 W/m² | - |
| 1778242519 | 23.33° C | 32% | 1015.5 hPa | 0 mm | - | 824 W/m² | - |
| 1778241930 | 22.78° C | 32% | 1015.6 hPa | 0 mm | - | 831 W/m² | - |
| 1778241325 | 22.22° C | 32% | 1015.6 hPa | 0 mm | - | 818 W/m² | - |
| 1778240722 | 22.22° C | 33% | 1015.6 hPa | 0 mm | - | 808 W/m² | - |
| 1778240119 | 22.22° C | 36% | 1015.6 hPa | 0 mm | - | 852 W/m² | - |
| 1778239529 | 21.67° C | 40% | 1015.7 hPa | 0 mm | - | 658 W/m² | - |
| 1778238925 | 21.67° C | 40% | 1015.6 hPa | 0 mm | - | 805 W/m² | - |
| 1778238319 | 21.67° C | 42% | 1015.7 hPa | 0 mm | - | 614 W/m² | - |
| 1778237730 | 20.56° C | 43% | 1015.8 hPa | 0 mm | - | 636 W/m² | - |
| 1778237126 | 20.56° C | 42% | 1015.8 hPa | 0 mm | - | 476 W/m² | - |
| 1778236522 | 20.56° C | 43% | 1015.9 hPa | 0 mm | - | 680 W/m² | - |
| 1778235924 | 21.11° C | 42% | 1016 hPa | 0 mm | - | 748 W/m² | - |
| 1778235320 | 21.67° C | 44% | 1016.1 hPa | 0 mm | - | 880 W/m² | - |
* Rain latest hour (hover to see other rain measurements)
** Current wind speed in m/s (hover to see current wind gust speed)